createdAt,value
2018-07-27T00:01:02.644Z,55.30
2018-07-27T00:08:30.675Z,54.90
2018-07-27T00:10:59.928Z,54.20
2018-07-27T00:13:29.096Z,53.90
2018-07-27T00:15:58.496Z,53.10
2018-07-27T00:18:27.918Z,53.60
2018-07-27T00:20:57.819Z,53.50
2018-07-27T00:23:27.070Z,53.40
2018-07-27T00:25:56.294Z,54.40
2018-07-27T00:28:25.754Z,53.70
2018-07-27T00:30:55.250Z,53.30
2018-07-27T00:33:24.481Z,54.60
2018-07-27T00:35:53.721Z,53.80
2018-07-27T00:38:23.132Z,53.40
2018-07-27T00:40:52.410Z,53.10
2018-07-27T00:43:22.349Z,53.40
2018-07-27T00:45:51.532Z,54.70
2018-07-27T00:48:20.894Z,54.90
2018-07-27T00:50:50.935Z,53.40
2018-07-27T00:53:20.144Z,53.60
2018-07-27T00:55:49.525Z,53.90
2018-07-27T00:58:19.611Z,55.10
2018-07-27T01:00:50.392Z,54.40
2018-07-27T01:03:19.650Z,55.80
2018-07-27T01:05:48.906Z,55.20
2018-07-27T01:08:18.468Z,55.10
2018-07-27T01:10:47.758Z,54.70
2018-07-27T01:13:17.009Z,54.60
2018-07-27T01:15:46.837Z,55.10
2018-07-27T01:18:17.070Z,55.90
2018-07-27T01:20:46.339Z,55.80
2018-07-27T01:23:15.537Z,55.60
2018-07-27T01:25:44.868Z,55.80
2018-07-27T01:28:14.239Z,56.90
2018-07-27T01:30:43.466Z,55.80
2018-07-27T01:33:12.693Z,56.40
2018-07-27T01:35:41.915Z,56.90
2018-07-27T01:38:12.270Z,56.80
2018-07-27T01:40:41.520Z,57.30
2018-07-27T01:43:11.125Z,57.80
2018-07-27T01:45:40.349Z,58.60
2018-07-27T01:48:09.725Z,58.20
2018-07-27T01:50:38.949Z,59.00
2018-07-27T01:53:08.140Z,57.60
2018-07-27T01:55:37.314Z,55.70
2018-07-27T01:58:07.237Z,56.60
2018-07-27T02:00:36.466Z,57.20
2018-07-27T02:03:05.844Z,57.70
2018-07-27T02:05:35.236Z,58.30
2018-07-27T02:08:05.535Z,59.20
2018-07-27T02:10:34.990Z,60.20
2018-07-27T02:13:04.296Z,60.30
2018-07-27T02:15:33.461Z,58.00
2018-07-27T02:18:03.732Z,57.90
2018-07-27T02:20:32.964Z,58.80
2018-07-27T02:23:02.704Z,60.60
2018-07-27T02:25:31.893Z,60.80
2018-07-27T02:28:03.199Z,61.90
2018-07-27T02:30:32.432Z,62.40
2018-07-27T02:33:01.675Z,61.50
2018-07-27T02:35:30.871Z,60.80
2018-07-27T02:38:01.510Z,61.60
2018-07-27T02:40:30.737Z,62.80
2018-07-27T02:42:59.937Z,63.50
2018-07-27T02:45:29.317Z,61.90
2018-07-27T02:47:58.524Z,61.60
2018-07-27T02:50:27.712Z,61.50
2018-07-27T02:52:56.968Z,61.50
2018-07-27T02:55:26.205Z,61.50
2018-07-27T02:57:55.531Z,62.20
2018-07-27T03:00:24.770Z,62.50
2018-07-27T03:02:54.047Z,62.40
2018-07-27T03:05:23.297Z,62.50
2018-07-27T03:07:53.032Z,63.40
2018-07-27T03:10:22.294Z,62.80
2018-07-27T03:12:52.334Z,64.40
2018-07-27T03:15:21.551Z,63.40
2018-07-27T03:17:51.625Z,59.70
2018-07-27T03:20:20.850Z,59.00
2018-07-27T03:22:50.030Z,59.00
2018-07-27T03:25:19.470Z,60.20
2018-07-27T03:27:49.037Z,63.20
2018-07-27T03:30:18.274Z,64.30
2018-07-27T03:32:47.505Z,64.30
2018-07-27T03:35:16.707Z,67.40
2018-07-27T03:37:45.938Z,64.10
2018-07-27T03:40:15.284Z,63.20
2018-07-27T03:42:44.506Z,64.50
2018-07-27T03:45:13.854Z,64.20
2018-07-27T03:47:43.073Z,64.20
2018-07-27T03:50:12.868Z,63.50
2018-07-27T03:52:42.106Z,60.40
2018-07-27T03:55:11.361Z,61.80
2018-07-27T03:57:40.824Z,63.20
2018-07-27T04:00:12.354Z,64.30
2018-07-27T04:02:42.027Z,64.70
2018-07-27T04:05:11.579Z,64.60
2018-07-27T04:07:40.783Z,68.20
2018-07-27T04:10:09.973Z,66.50
2018-07-27T04:12:39.211Z,67.00
2018-07-27T04:15:08.493Z,66.60
2018-07-27T04:17:37.714Z,66.00
2018-07-27T04:20:06.951Z,64.80
2018-07-27T04:22:36.179Z,65.00
2018-07-27T04:25:05.572Z,65.90
2018-07-27T04:27:34.805Z,65.70
2018-07-27T04:30:04.475Z,65.40
2018-07-27T04:32:33.721Z,63.50
2018-07-27T04:35:03.108Z,63.50
2018-07-27T04:37:32.311Z,64.80
2018-07-27T04:40:02.104Z,62.00
2018-07-27T04:42:31.338Z,61.60
2018-07-27T04:45:00.662Z,60.90
2018-07-27T04:47:29.922Z,61.80
2018-07-27T04:49:59.231Z,61.40
2018-07-27T04:52:28.878Z,61.10
2018-07-27T04:54:58.671Z,60.90
2018-07-27T04:57:28.308Z,61.80
2018-07-27T04:59:57.966Z,59.40
2018-07-27T05:02:27.252Z,60.00
2018-07-27T05:04:56.494Z,59.30
2018-07-27T05:07:26.380Z,59.10
2018-07-27T05:09:59.809Z,59.20
2018-07-27T05:12:29.012Z,57.60
2018-07-27T05:14:58.339Z,57.40
2018-07-27T05:17:27.590Z,58.70
2018-07-27T05:19:58.035Z,57.00
2018-07-27T05:22:27.260Z,57.70
2018-07-27T05:24:56.495Z,56.50
2018-07-27T05:27:25.754Z,55.00
2018-07-27T05:29:56.164Z,55.70
2018-07-27T05:32:25.395Z,55.70
2018-07-27T05:34:54.730Z,55.20
2018-07-27T05:37:25.311Z,52.50
2018-07-27T05:39:54.747Z,54.10
2018-07-27T05:42:23.990Z,54.60
2018-07-27T05:44:55.203Z,53.70
2018-07-27T05:47:24.995Z,53.00
2018-07-27T05:49:54.455Z,50.60
2018-07-27T05:52:23.665Z,49.00
2018-07-27T05:54:53.111Z,50.50
2018-07-27T05:57:22.414Z,50.50
2018-07-27T05:59:51.925Z,47.50
2018-07-27T06:04:50.135Z,47.00
2018-07-27T06:09:49.185Z,46.20
2018-07-27T06:12:18.431Z,46.00
2018-07-27T06:17:18.441Z,45.20
2018-07-27T06:19:47.817Z,45.60
2018-07-27T06:22:17.067Z,46.90
2018-07-27T06:24:50.946Z,46.80
2018-07-27T06:27:22.621Z,46.40
2018-07-27T06:29:52.288Z,46.70
2018-07-27T06:32:22.477Z,47.60
2018-07-27T06:34:51.756Z,45.20
2018-07-27T06:37:21.003Z,43.90
2018-07-27T06:39:50.422Z,43.30
2018-07-27T06:42:19.618Z,42.50
2018-07-27T06:44:48.862Z,41.90
2018-07-27T06:47:19.536Z,39.90
2018-07-27T06:49:48.781Z,36.50
2018-07-27T06:52:17.984Z,36.10
2018-07-27T06:54:47.270Z,36.50
2018-07-27T06:57:16.498Z,34.70
2018-07-27T06:59:45.814Z,34.80
2018-07-27T07:02:16.721Z,33.10
2018-07-27T07:04:45.952Z,31.90
2018-07-27T07:07:15.192Z,31.60
2018-07-27T07:09:44.527Z,32.60
2018-07-27T07:12:13.718Z,30.70
2018-07-27T07:14:42.908Z,30.30
2018-07-27T07:17:13.041Z,31.10
2018-07-27T07:19:42.254Z,31.30
2018-07-27T07:22:11.442Z,31.20
2018-07-27T07:24:40.623Z,30.40
2018-07-27T07:27:09.876Z,30.90
2018-07-27T07:29:39.388Z,30.60
2018-07-27T07:32:08.717Z,29.00
2018-07-27T07:34:37.922Z,27.80
2018-07-27T07:37:07.185Z,28.00
2018-07-27T07:39:37.657Z,27.80
2018-07-27T07:42:07.010Z,26.40
2018-07-27T07:44:36.227Z,26.70
2018-07-27T07:47:06.343Z,26.30
2018-07-27T07:49:35.772Z,26.30
2018-07-27T07:52:05.141Z,25.90
2018-07-27T07:54:34.456Z,27.00
2018-07-27T07:57:03.956Z,26.70
2018-07-27T07:59:33.356Z,25.50
2018-07-27T08:02:02.605Z,25.50
2018-07-27T08:04:31.978Z,25.10
2018-07-27T08:07:02.204Z,25.50
2018-07-27T08:09:31.693Z,25.50
2018-07-27T08:12:02.487Z,25.30
2018-07-27T08:14:31.697Z,24.90
2018-07-27T08:17:00.956Z,24.50
2018-07-27T08:19:30.145Z,24.20
2018-07-27T08:21:59.378Z,24.00
2018-07-27T08:24:28.591Z,24.30
2018-07-27T08:27:00.895Z,24.20
2018-07-27T08:29:38.178Z,23.00
2018-07-27T08:32:07.655Z,22.60
2018-07-27T08:34:36.981Z,23.90
2018-07-27T08:37:06.611Z,23.10
2018-07-27T08:39:48.706Z,21.50
2018-07-27T08:42:19.421Z,22.50
2018-07-27T08:47:22.491Z,22.00
2018-07-27T08:49:52.754Z,21.30
2018-07-27T08:52:21.946Z,21.50
2018-07-27T08:54:51.214Z,19.80
2018-07-27T08:57:20.443Z,18.50
2018-07-27T08:59:49.949Z,19.70
2018-07-27T09:02:21.209Z,18.40
2018-07-27T09:04:50.395Z,17.40
2018-07-27T09:07:19.693Z,17.70
2018-07-27T09:09:49.010Z,17.30
2018-07-27T09:12:18.289Z,17.00
2018-07-27T09:14:48.305Z,17.80
2018-07-27T09:17:19.448Z,17.60
2018-07-27T09:19:48.855Z,17.00
2018-07-27T09:22:18.051Z,15.80
2018-07-27T09:24:47.303Z,16.40
2018-07-27T09:27:16.642Z,15.70
2018-07-27T09:29:45.959Z,16.70
2018-07-27T09:32:16.833Z,15.20
2018-07-27T09:34:46.263Z,16.10
2018-07-27T09:37:15.534Z,15.60
2018-07-27T09:39:44.966Z,14.70
2018-07-27T09:42:14.229Z,15.70
2018-07-27T09:44:43.482Z,16.10
2018-07-27T09:47:13.232Z,15.80
2018-07-27T09:49:42.499Z,15.40
2018-07-27T09:52:26.281Z,15.20
2018-07-27T09:54:56.992Z,15.30
2018-07-27T09:57:26.206Z,14.80
2018-07-27T09:59:55.475Z,14.80
2018-07-27T10:02:26.214Z,15.00
2018-07-27T10:04:55.417Z,14.90
2018-07-27T10:07:24.618Z,14.90
2018-07-27T10:09:53.898Z,14.50
2018-07-27T10:12:23.114Z,14.90
2018-07-27T10:14:52.331Z,14.90
2018-07-27T10:17:23.360Z,15.00
2018-07-27T10:19:52.770Z,15.70
2018-07-27T10:22:21.994Z,15.40
2018-07-27T10:24:51.250Z,14.60
2018-07-27T10:27:20.527Z,12.50
2018-07-27T10:29:49.992Z,15.10
2018-07-27T10:32:21.550Z,14.30
2018-07-27T10:34:50.720Z,15.20
2018-07-27T10:37:20.124Z,14.60
2018-07-27T10:39:49.814Z,13.30
2018-07-27T10:42:19.276Z,13.60
2018-07-27T10:44:48.537Z,14.60
2018-07-27T10:47:19.928Z,13.30
2018-07-27T10:49:49.233Z,11.30
2018-07-27T10:52:18.581Z,13.20
2018-07-27T10:54:47.922Z,12.40
2018-07-27T10:57:17.142Z,11.60
2018-07-27T10:59:47.159Z,11.70
2018-07-27T11:02:18.203Z,12.30
2018-07-27T11:04:47.447Z,14.30
2018-07-27T11:07:16.655Z,13.10
2018-07-27T11:09:45.938Z,11.90
2018-07-27T11:12:15.185Z,12.20
2018-07-27T11:14:44.408Z,11.00
2018-07-27T11:17:14.580Z,11.50
2018-07-27T11:19:43.925Z,11.30
2018-07-27T11:22:13.127Z,11.10
2018-07-27T11:24:42.401Z,12.10
2018-07-27T11:27:11.612Z,11.80
2018-07-27T11:29:40.941Z,12.10
2018-07-27T11:32:10.211Z,12.10
2018-07-27T11:34:39.440Z,11.40
2018-07-27T11:37:08.740Z,11.10
2018-07-27T11:39:37.949Z,11.70
2018-07-27T11:42:07.337Z,11.50
2018-07-27T11:44:36.580Z,11.10
2018-07-27T11:47:06.114Z,11.60
2018-07-27T11:49:35.520Z,12.00
2018-07-27T11:52:04.899Z,11.40
2018-07-27T11:54:34.959Z,10.10
2018-07-27T11:57:04.172Z,10.50
2018-07-27T11:59:33.541Z,10.50
2018-07-27T12:02:02.795Z,11.10
2018-07-27T12:04:31.985Z,11.70
2018-07-27T12:07:01.352Z,11.60
2018-07-27T12:09:30.515Z,12.00
2018-07-27T12:11:59.889Z,12.10
2018-07-27T12:14:29.273Z,11.40
2018-07-27T12:16:58.356Z,10.00
2018-07-27T12:19:27.901Z,9.20
2018-07-27T12:21:57.141Z,10.10
2018-07-27T12:24:26.401Z,9.40
2018-07-27T12:26:55.627Z,9.20
2018-07-27T12:29:25.040Z,9.10
2018-07-27T12:31:54.192Z,8.90
2018-07-27T12:34:23.432Z,9.10
2018-07-27T12:36:52.657Z,10.00
2018-07-27T12:39:21.811Z,9.70
2018-07-27T12:41:51.051Z,8.30
2018-07-27T12:44:20.228Z,9.90
2018-07-27T12:46:49.425Z,9.10
2018-07-27T12:49:18.627Z,7.30
2018-07-27T12:51:48.018Z,7.30
2018-07-27T12:54:17.344Z,5.60
2018-07-27T12:56:46.625Z,6.60
2018-07-27T12:59:16.063Z,5.70
2018-07-27T13:01:45.299Z,6.00
2018-07-27T13:04:14.736Z,6.00
2018-07-27T13:09:13.550Z,5.80
2018-07-27T13:11:42.793Z,4.50
2018-07-27T13:14:11.988Z,4.50
2018-07-27T13:16:41.364Z,4.30
2018-07-27T13:19:13.479Z,5.20
2018-07-27T13:21:43.277Z,5.40
2018-07-27T13:24:12.474Z,5.00
2018-07-27T13:26:41.718Z,4.20
2018-07-27T13:29:11.048Z,4.50
2018-07-27T13:34:43.270Z,3.50
2018-07-27T13:37:12.834Z,3.80
2018-07-27T13:39:43.002Z,5.90
2018-07-27T13:42:13.288Z,4.60
2018-07-27T13:44:42.994Z,1.50
2018-07-27T13:49:42.925Z,1.00
2018-07-27T13:52:12.538Z,1.00
2018-07-27T13:54:41.794Z,1.00
2018-07-27T13:57:11.481Z,1.00
2018-07-27T13:59:40.693Z,1.00
2018-07-27T14:02:10.359Z,1.00
2018-07-27T14:04:39.646Z,1.00
2018-07-27T14:07:09.728Z,1.00
2018-07-27T14:09:38.999Z,1.00
2018-07-27T14:12:08.210Z,1.00
2018-07-27T14:14:37.429Z,1.00
2018-07-27T14:17:06.867Z,1.00
2018-07-27T14:19:36.237Z,1.00
2018-07-27T14:22:05.566Z,1.00
2018-07-27T14:24:34.820Z,1.00
2018-07-27T14:27:04.117Z,1.00
2018-07-27T14:29:33.363Z,1.00
2018-07-27T14:32:02.553Z,1.00
2018-07-27T14:34:31.744Z,1.00
2018-07-27T14:37:01.388Z,1.00
2018-07-27T14:39:31.524Z,1.00
2018-07-27T14:42:00.725Z,1.00
2018-07-27T14:44:30.019Z,1.00
2018-07-27T14:46:59.169Z,1.90
2018-07-27T14:49:29.447Z,2.00
2018-07-27T14:51:58.813Z,1.90
2018-07-27T14:54:29.184Z,3.00
2018-07-27T14:56:58.582Z,1.90
2018-07-27T14:59:27.892Z,2.40
2018-07-27T15:01:57.104Z,3.90
2018-07-27T15:04:26.357Z,4.90
2018-07-27T15:06:55.571Z,4.90
2018-07-27T15:09:24.825Z,6.40
2018-07-27T15:11:54.047Z,5.30
2018-07-27T15:14:23.600Z,6.60
2018-07-27T15:16:52.812Z,6.60
2018-07-27T15:19:23.086Z,6.30
2018-07-27T15:21:52.297Z,6.50
2018-07-27T15:24:21.876Z,7.00
2018-07-27T15:26:51.040Z,7.40
2018-07-27T15:29:21.245Z,7.40
2018-07-27T15:31:50.481Z,7.40
2018-07-27T15:36:48.443Z,7.90
2018-07-27T15:39:18.656Z,7.90
2018-07-27T15:41:49.470Z,8.60
2018-07-27T15:44:18.720Z,8.40
2018-07-27T15:46:47.937Z,8.90
2018-07-27T15:49:17.845Z,7.80
2018-07-27T15:51:47.145Z,8.30
2018-07-27T15:54:16.341Z,8.70
2018-07-27T15:56:45.557Z,7.60
2018-07-27T15:59:14.961Z,8.50
2018-07-27T16:01:44.530Z,7.60
2018-07-27T16:04:13.728Z,7.40
2018-07-27T16:06:42.998Z,6.00
2018-07-27T16:09:12.390Z,5.00
2018-07-27T16:11:41.679Z,4.90
2018-07-27T16:14:10.891Z,5.30
2018-07-27T16:16:40.051Z,5.00
2018-07-27T16:19:10.344Z,4.90
2018-07-27T16:21:39.568Z,5.70
2018-07-27T16:24:08.854Z,6.00
2018-07-27T16:26:38.057Z,4.30
2018-07-27T16:29:07.408Z,4.00
2018-07-27T16:31:36.635Z,4.10
2018-07-27T16:34:06.131Z,3.60
2018-07-27T16:36:35.443Z,3.40
2018-07-27T16:39:07.764Z,3.50
2018-07-27T16:41:37.014Z,3.80
2018-07-27T16:44:06.600Z,4.90
2018-07-27T16:46:35.961Z,4.50
2018-07-27T16:49:05.689Z,5.20
2018-07-27T16:51:35.087Z,6.00
2018-07-27T16:54:04.703Z,6.60
2018-07-27T16:56:33.963Z,6.80
2018-07-27T16:59:03.302Z,7.70
2018-07-27T17:01:32.508Z,8.30
2018-07-27T17:04:01.949Z,9.10
2018-07-27T17:06:31.168Z,10.00
2018-07-27T17:09:00.502Z,8.80
2018-07-27T17:11:29.702Z,8.90
2018-07-27T17:13:58.980Z,9.60
2018-07-27T17:16:28.215Z,9.40
2018-07-27T17:18:58.582Z,9.70
2018-07-27T17:21:29.342Z,10.50
2018-07-27T17:23:58.747Z,11.60
2018-07-27T17:26:28.784Z,11.10
2018-07-27T17:28:58.947Z,11.30
2018-07-27T17:31:28.668Z,12.10
2018-07-27T17:33:57.938Z,14.20
2018-07-27T17:36:27.312Z,15.20
2018-07-27T17:38:56.754Z,15.70
2018-07-27T17:41:26.036Z,16.90
2018-07-27T17:43:55.357Z,18.20
2018-07-27T17:46:25.558Z,19.10
2018-07-27T17:48:55.121Z,20.00
2018-07-27T17:53:54.096Z,22.00
2018-07-27T17:56:23.383Z,22.30
2018-07-27T17:58:52.875Z,23.40
2018-07-27T18:01:22.351Z,23.20
2018-07-27T18:03:54.293Z,23.10
2018-07-27T18:06:23.543Z,24.00
2018-07-27T18:08:53.064Z,24.90
2018-07-27T18:11:22.528Z,25.60
2018-07-27T18:13:51.766Z,26.20
2018-07-27T18:16:21.109Z,25.60
2018-07-27T18:18:50.390Z,26.10
2018-07-27T18:21:20.087Z,26.70
2018-07-27T18:23:49.561Z,28.80
2018-07-27T18:26:19.210Z,30.00
2018-07-27T18:28:49.135Z,29.80
2018-07-27T18:31:20.374Z,30.10
2018-07-27T18:33:49.633Z,30.20
2018-07-27T18:36:19.700Z,31.20
2018-07-27T18:38:49.099Z,32.80
2018-07-27T18:41:18.412Z,34.70
2018-07-27T18:43:47.671Z,36.40
2018-07-27T18:46:16.994Z,37.60
2018-07-27T18:48:46.250Z,38.50
2018-07-27T18:51:15.474Z,37.70
2018-07-27T18:53:45.019Z,38.60
2018-07-27T18:58:43.733Z,42.40
2018-07-27T19:01:13.618Z,41.60
2018-07-27T19:03:43.537Z,40.10
2018-07-27T19:06:12.839Z,40.00
2018-07-27T19:08:42.689Z,40.00
2018-07-27T19:11:12.289Z,40.60
2018-07-27T19:13:41.724Z,41.40
2018-07-27T19:16:11.360Z,42.20
2018-07-27T19:18:41.545Z,43.80
2018-07-27T19:21:10.965Z,45.00
2018-07-27T19:23:40.509Z,44.80
2018-07-27T19:28:38.809Z,41.20
2018-07-27T19:31:08.374Z,42.50
2018-07-27T19:33:37.612Z,43.30
2018-07-27T19:36:07.716Z,44.20
2018-07-27T19:38:37.083Z,43.80
2018-07-27T19:41:07.460Z,44.20
2018-07-27T19:43:36.696Z,43.80
2018-07-27T19:46:05.956Z,43.00
2018-07-27T19:48:35.407Z,42.30
2018-07-27T19:51:04.790Z,42.80
2018-07-27T19:53:34.024Z,44.00
2018-07-27T19:56:03.317Z,42.40
2018-07-27T19:58:32.582Z,42.70
2018-07-27T20:01:01.834Z,42.20
2018-07-27T20:03:31.062Z,41.90
2018-07-27T20:06:00.299Z,41.70
2018-07-27T20:08:29.573Z,42.80
2018-07-27T20:10:58.861Z,42.70
2018-07-27T20:13:28.215Z,42.40
2018-07-27T20:15:57.567Z,44.00
2018-07-27T20:18:27.026Z,45.00
2018-07-27T20:20:56.977Z,45.10
2018-07-27T20:23:27.034Z,45.90
2018-07-27T20:25:56.505Z,46.90
2018-07-27T20:28:25.962Z,46.90
2018-07-27T20:30:56.181Z,46.20
2018-07-27T20:33:25.537Z,44.80
2018-07-27T20:35:55.508Z,47.70
2018-07-27T20:38:25.042Z,46.60
2018-07-27T20:40:54.380Z,46.60
2018-07-27T20:43:24.055Z,46.60
2018-07-27T20:45:54.354Z,47.70
2018-07-27T20:48:24.411Z,47.90
2018-07-27T20:50:54.009Z,47.60
2018-07-27T20:53:23.278Z,48.20
2018-07-27T20:55:52.506Z,49.10
2018-07-27T20:58:25.084Z,49.40
2018-07-27T21:00:55.384Z,49.70
2018-07-27T21:03:24.997Z,51.30
2018-07-27T21:05:54.218Z,51.60
2018-07-27T21:08:23.726Z,51.40
2018-07-27T21:10:57.717Z,48.80
2018-07-27T21:13:28.043Z,48.40
2018-07-27T21:15:58.260Z,48.40
2018-07-27T21:18:33.329Z,48.80
2018-07-27T21:21:02.735Z,49.20
2018-07-27T21:23:32.078Z,49.80
2018-07-27T21:26:01.476Z,50.50
2018-07-27T21:28:31.342Z,49.30
2018-07-27T21:31:00.875Z,50.60
2018-07-27T21:33:30.141Z,52.20
2018-07-27T21:35:59.374Z,51.80
2018-07-27T21:38:29.427Z,51.90
2018-07-27T21:40:59.625Z,52.20
2018-07-27T21:43:29.557Z,52.00
2018-07-27T21:45:58.811Z,51.40
2018-07-27T21:48:28.117Z,51.80
2018-07-27T21:50:57.380Z,51.60
2018-07-27T21:53:26.878Z,52.70
2018-07-27T21:55:56.209Z,52.40
2018-07-27T21:58:25.655Z,51.80
2018-07-27T22:00:55.336Z,51.70
2018-07-27T22:03:24.698Z,51.20
2018-07-27T22:05:54.052Z,52.10
2018-07-27T22:08:23.559Z,52.10
2018-07-27T22:10:52.812Z,52.90
2018-07-27T22:13:22.148Z,52.90
2018-07-27T22:15:52.036Z,53.30
2018-07-27T22:18:21.656Z,53.30
2018-07-27T22:20:50.847Z,54.60
2018-07-27T22:23:20.119Z,55.80
2018-07-27T22:25:49.351Z,55.80
2018-07-27T22:28:18.675Z,55.00
2018-07-27T22:30:48.222Z,55.60
2018-07-27T22:33:18.179Z,56.60
2018-07-27T22:35:47.556Z,56.60
2018-07-27T22:38:16.971Z,55.60
2018-07-27T22:40:46.330Z,56.10
2018-07-27T22:43:16.244Z,57.00
2018-07-27T22:45:45.459Z,56.40
2018-07-27T22:48:15.120Z,56.20
2018-07-27T22:50:44.357Z,56.90
2018-07-27T22:53:13.602Z,57.20
2018-07-27T22:55:42.845Z,58.20
2018-07-27T22:58:12.165Z,58.00
2018-07-27T23:00:41.394Z,57.80
2018-07-27T23:03:10.867Z,59.50
2018-07-27T23:05:40.091Z,59.40
2018-07-27T23:08:10.437Z,60.60
2018-07-27T23:10:39.683Z,60.80
2018-07-27T23:13:08.963Z,60.10
2018-07-27T23:15:38.240Z,60.90
2018-07-27T23:18:07.746Z,61.30
2018-07-27T23:20:36.946Z,60.60
2018-07-27T23:23:06.739Z,62.00
2018-07-27T23:25:38.145Z,60.60
2018-07-27T23:28:08.171Z,59.70
2018-07-27T23:30:37.822Z,60.40
2018-07-27T23:33:07.031Z,61.70
2018-07-27T23:35:36.303Z,63.00
2018-07-27T23:38:06.103Z,63.60
2018-07-27T23:40:35.352Z,66.20
2018-07-27T23:43:04.640Z,65.20
2018-07-27T23:45:33.884Z,64.60
2018-07-27T23:48:03.322Z,63.60
2018-07-27T23:50:32.639Z,63.50
2018-07-27T23:53:02.653Z,62.80
2018-07-27T23:55:31.901Z,63.10
2018-07-27T23:58:01.354Z,63.10
